Andover, Virginia
Current Conditions -  °F | °C
As of 5:35 AM on Saturday 22 Nov 2014 (Local Time) from KLNP Reporting Station
Clear Clear  
Wind Chill: 30°   Ceiling: Unl
Heat Index: 34°   Visibility: 10mi
Dew Point: 10°   Wind: 5mph
Humidity: 38%   Direction: 200°SSW
Pressure: 30.38"   Gusts: NA
Location:  36.92°N, 82.8°W
Report Text: KLNP 221035Z AUTO 20004KT 10SM CLR 01/M12 A3038 RMK AO2
Loading
Personal Weather Stations






























Interactive Weather Map New forecast layout! Learn more

10-Day Weather Forecast

Advertisements
Track Severe Weather on mobile